createdAt,value
2022-10-16T00:01:41.609Z,0.80
2022-10-16T00:04:09.753Z,0.77
2022-10-16T00:06:36.625Z,0.80
2022-10-16T00:09:03.985Z,0.70
2022-10-16T00:11:37.417Z,0.88
2022-10-16T00:14:11.570Z,0.70
2022-10-16T00:16:38.987Z,0.80
2022-10-16T00:19:06.434Z,0.70
2022-10-16T00:21:34.238Z,0.80
2022-10-16T00:24:06.535Z,0.95
2022-10-16T00:26:35.905Z,0.70
2022-10-16T00:29:04.102Z,0.82
2022-10-16T00:31:31.419Z,0.65
2022-10-16T00:33:58.902Z,0.90
2022-10-16T00:36:27.497Z,0.90
2022-10-16T00:38:57.148Z,0.70
2022-10-16T00:41:26.412Z,0.73
2022-10-16T00:44:00.148Z,0.90
2022-10-16T00:46:47.382Z,0.70
2022-10-16T00:49:21.223Z,0.60
2022-10-16T00:51:54.503Z,0.70
2022-10-16T00:54:25.534Z,0.90
2022-10-16T00:56:54.611Z,1.00
2022-10-16T00:59:29.996Z,0.85
2022-10-16T01:01:58.484Z,0.90
2022-10-16T01:04:27.073Z,0.68
2022-10-16T01:07:40.728Z,0.80
2022-10-16T01:10:22.066Z,0.90
2022-10-16T01:13:13.614Z,0.70
2022-10-16T01:16:15.449Z,0.70
2022-10-16T01:18:50.571Z,0.70
2022-10-16T01:21:22.204Z,0.80
2022-10-16T01:24:02.590Z,0.70
2022-10-16T01:27:25.674Z,0.80
2022-10-16T01:30:04.496Z,0.80
2022-10-16T01:33:10.536Z,0.80
2022-10-16T01:35:52.389Z,0.80
2022-10-16T01:38:38.683Z,0.80
2022-10-16T01:41:22.467Z,0.63
2022-10-16T01:44:06.695Z,0.70
2022-10-16T01:46:38.799Z,0.63
2022-10-16T01:49:08.486Z,0.70
2022-10-16T01:51:38.138Z,0.63
2022-10-16T01:54:09.039Z,0.70
2022-10-16T01:56:38.244Z,0.70
2022-10-16T01:59:14.912Z,0.70
2022-10-16T02:01:52.452Z,0.80
2022-10-16T02:04:33.828Z,0.80
2022-10-16T02:07:04.102Z,0.60
2022-10-16T02:09:36.403Z,0.80
2022-10-16T02:12:23.052Z,0.63
2022-10-16T02:14:50.114Z,0.70
2022-10-16T02:17:19.584Z,0.88
2022-10-16T02:19:50.365Z,0.88
2022-10-16T02:22:37.191Z,0.70
2022-10-16T02:25:25.360Z,0.80
2022-10-16T02:28:01.137Z,0.80
2022-10-16T02:30:36.158Z,0.70
2022-10-16T02:33:08.045Z,0.70
2022-10-16T02:35:36.423Z,0.70
2022-10-16T02:38:04.457Z,0.70
2022-10-16T02:40:32.019Z,0.60
2022-10-16T02:42:58.925Z,0.60
2022-10-16T02:45:26.129Z,0.80
2022-10-16T02:47:53.101Z,0.85
2022-10-16T02:50:20.085Z,0.70
2022-10-16T02:52:47.011Z,0.70
2022-10-16T02:55:14.038Z,0.60
2022-10-16T02:57:41.492Z,0.60
2022-10-16T03:00:12.873Z,0.75
2022-10-16T03:02:40.090Z,0.70
2022-10-16T03:05:08.045Z,0.73
2022-10-16T03:07:35.011Z,0.60
2022-10-16T03:10:01.949Z,0.60
2022-10-16T03:12:30.064Z,0.90
2022-10-16T03:14:57.769Z,0.77
2022-10-16T03:17:25.887Z,0.90
2022-10-16T03:19:53.348Z,0.60
2022-10-16T03:22:20.257Z,0.60
2022-10-16T03:24:47.222Z,0.63
2022-10-16T03:27:14.104Z,0.80
2022-10-16T03:29:41.004Z,0.70
2022-10-16T03:32:07.966Z,0.55
2022-10-16T03:34:34.872Z,0.60
2022-10-16T03:37:01.841Z,0.70
2022-10-16T03:39:28.689Z,0.60
2022-10-16T03:41:55.545Z,0.50
2022-10-16T03:44:22.707Z,0.75
2022-10-16T03:46:49.567Z,0.55
2022-10-16T03:49:16.477Z,0.55
2022-10-16T03:51:43.336Z,0.65
2022-10-16T03:54:11.341Z,0.70
2022-10-16T03:56:38.249Z,0.68
2022-10-16T03:59:05.404Z,0.70
2022-10-16T04:01:32.326Z,0.70
2022-10-16T04:03:59.166Z,0.63
2022-10-16T04:06:26.072Z,0.70
2022-10-16T04:08:53.190Z,0.80
2022-10-16T04:11:20.072Z,0.60
2022-10-16T04:13:46.979Z,0.52
2022-10-16T04:16:13.849Z,0.60
2022-10-16T04:18:41.120Z,0.70
2022-10-16T04:21:09.013Z,0.60
2022-10-16T04:23:35.953Z,0.50
2022-10-16T04:26:02.927Z,0.70
2022-10-16T04:28:29.961Z,0.45
2022-10-16T04:30:57.103Z,0.73
2022-10-16T04:33:24.036Z,0.60
2022-10-16T04:35:58.522Z,0.63
2022-10-16T04:38:26.053Z,0.60
2022-10-16T04:40:53.953Z,0.60
2022-10-16T04:43:21.323Z,0.60
2022-10-16T04:45:48.272Z,0.63
2022-10-16T04:48:15.132Z,0.60
2022-10-16T04:50:42.590Z,0.70
2022-10-16T04:53:09.554Z,0.63
2022-10-16T04:55:36.406Z,0.70
2022-10-16T04:58:03.278Z,0.60
2022-10-16T05:00:30.152Z,0.60
2022-10-16T05:02:58.071Z,0.70
2022-10-16T05:05:25.051Z,0.68
2022-10-16T05:07:52.803Z,0.50
2022-10-16T05:10:20.481Z,0.50
2022-10-16T05:12:47.517Z,0.50
2022-10-16T05:15:14.569Z,0.57
2022-10-16T05:17:44.619Z,0.60
2022-10-16T05:20:13.004Z,0.60
2022-10-16T05:22:40.036Z,0.73
2022-10-16T05:25:07.751Z,0.60
2022-10-16T05:27:34.621Z,0.50
2022-10-16T05:30:01.508Z,0.68
2022-10-16T05:32:28.795Z,0.60
2022-10-16T05:34:55.628Z,0.60
2022-10-16T05:37:22.516Z,0.70
2022-10-16T05:39:49.378Z,0.60
2022-10-16T05:42:16.232Z,0.55
2022-10-16T05:44:43.283Z,0.50
2022-10-16T05:47:11.653Z,0.60
2022-10-16T05:49:41.266Z,0.60
2022-10-16T05:52:08.607Z,0.50
2022-10-16T05:54:35.420Z,0.57
2022-10-16T05:57:03.088Z,0.55
2022-10-16T05:59:30.349Z,0.50
2022-10-16T06:01:57.268Z,0.40
2022-10-16T06:04:24.410Z,0.50
2022-10-16T06:06:51.251Z,0.50
2022-10-16T06:09:18.487Z,0.52
2022-10-16T06:11:45.356Z,0.50
2022-10-16T06:14:12.203Z,0.65
2022-10-16T06:16:44.136Z,0.70
2022-10-16T06:19:11.108Z,0.57
2022-10-16T06:21:37.999Z,0.50
2022-10-16T06:24:05.279Z,0.50
2022-10-16T06:26:32.658Z,0.50
2022-10-16T06:29:01.017Z,0.50
2022-10-16T06:31:31.561Z,0.60
2022-10-16T06:33:59.021Z,0.43
2022-10-16T06:36:27.263Z,0.50
2022-10-16T06:38:54.784Z,0.60
2022-10-16T06:41:23.850Z,0.50
2022-10-16T06:43:51.628Z,0.63
2022-10-16T06:46:23.271Z,0.55
2022-10-16T06:48:50.337Z,0.57
2022-10-16T06:51:23.892Z,0.50
2022-10-16T06:54:03.753Z,0.50
2022-10-16T06:56:34.366Z,0.57
2022-10-16T06:59:02.230Z,0.60
2022-10-16T07:01:29.931Z,0.43
2022-10-16T07:03:56.816Z,0.50
2022-10-16T07:06:26.508Z,0.50
2022-10-16T07:08:53.965Z,0.40
2022-10-16T07:11:24.507Z,0.50
2022-10-16T07:13:55.090Z,0.50
2022-10-16T07:16:29.846Z,0.47
2022-10-16T07:19:04.524Z,0.60
2022-10-16T07:21:37.730Z,0.50
2022-10-16T07:24:08.096Z,0.70
2022-10-16T07:26:40.257Z,0.70
2022-10-16T07:29:22.698Z,0.50
2022-10-16T07:31:50.412Z,0.55
2022-10-16T07:34:22.549Z,0.55
2022-10-16T07:36:51.194Z,0.50
2022-10-16T07:39:18.669Z,0.50
2022-10-16T07:41:45.666Z,0.57
2022-10-16T07:44:12.570Z,0.60
2022-10-16T07:46:39.932Z,0.55
2022-10-16T07:49:06.888Z,0.47
2022-10-16T07:51:34.304Z,0.50
2022-10-16T07:54:01.242Z,0.40
2022-10-16T07:56:28.187Z,0.47
2022-10-16T07:58:55.181Z,0.50
2022-10-16T08:01:22.375Z,0.50
2022-10-16T08:03:52.203Z,0.50
2022-10-16T08:06:26.702Z,0.60
2022-10-16T08:08:56.719Z,0.60
2022-10-16T08:11:24.381Z,0.68
2022-10-16T08:13:51.275Z,0.90
2022-10-16T08:16:18.631Z,0.70
2022-10-16T08:18:45.547Z,0.50
2022-10-16T08:21:21.414Z,0.73
2022-10-16T08:23:54.527Z,0.70
2022-10-16T08:26:25.800Z,0.70
2022-10-16T08:28:53.117Z,0.70
2022-10-16T08:31:21.072Z,0.80
2022-10-16T08:33:48.717Z,0.60
2022-10-16T08:36:17.223Z,0.60
2022-10-16T08:38:44.428Z,0.80
2022-10-16T08:41:14.324Z,0.77
2022-10-16T08:44:20.466Z,0.55
2022-10-16T08:47:23.426Z,0.88
2022-10-16T08:50:10.404Z,0.63
2022-10-16T08:52:44.144Z,0.70
2022-10-16T08:55:31.630Z,0.80
2022-10-16T08:57:59.242Z,0.70
2022-10-16T09:00:28.178Z,0.88
2022-10-16T09:03:34.012Z,0.65
2022-10-16T09:06:51.059Z,0.65
2022-10-16T09:09:32.172Z,0.52
2022-10-16T09:12:45.848Z,0.70
2022-10-16T09:15:55.236Z,0.60
2022-10-16T09:18:32.739Z,0.80
2022-10-16T09:21:20.962Z,0.70
2022-10-16T09:23:48.704Z,0.68
2022-10-16T09:26:19.288Z,0.70
2022-10-16T09:28:46.426Z,0.73
2022-10-16T09:31:22.547Z,0.60
2022-10-16T09:34:01.317Z,0.65
2022-10-16T09:36:33.465Z,0.50
2022-10-16T09:39:10.760Z,0.50
2022-10-16T09:41:42.870Z,0.63
2022-10-16T09:47:30.596Z,0.60
2022-10-16T09:50:06.919Z,0.50
2022-10-16T09:52:34.908Z,0.63
2022-10-16T09:55:15.095Z,0.60
2022-10-16T09:57:55.918Z,0.68
2022-10-16T10:00:25.336Z,0.60
2022-10-16T10:05:30.167Z,0.55
2022-10-16T10:08:08.829Z,0.50
2022-10-16T10:10:44.362Z,0.70
2022-10-16T10:13:23.467Z,0.52
2022-10-16T10:15:52.125Z,0.50
2022-10-16T10:18:24.962Z,0.70
2022-10-16T10:23:32.985Z,0.60
2022-10-16T10:26:18.724Z,0.68
2022-10-16T10:29:12.913Z,0.85
2022-10-16T10:32:06.006Z,0.70
2022-10-16T10:35:10.523Z,0.70
2022-10-16T10:38:16.167Z,0.70
2022-10-16T10:40:45.839Z,0.90
2022-10-16T10:44:06.357Z,0.73
2022-10-16T10:46:35.675Z,1.00
2022-10-16T10:49:21.233Z,0.73
2022-10-16T10:52:32.786Z,0.65
2022-10-16T10:55:32.642Z,0.90
2022-10-16T10:58:27.204Z,0.70
2022-10-16T11:01:21.204Z,1.00
2022-10-16T11:04:28.623Z,1.13
2022-10-16T11:07:26.311Z,1.15
2022-10-16T11:10:00.272Z,1.10
2022-10-16T11:12:45.599Z,0.90
2022-10-16T11:15:23.315Z,1.17
2022-10-16T11:18:14.337Z,1.10
2022-10-16T11:21:00.736Z,1.10
2022-10-16T11:24:05.786Z,1.00
2022-10-16T11:26:40.777Z,0.98
2022-10-16T11:29:20.664Z,1.20
2022-10-16T11:32:15.269Z,1.10
2022-10-16T11:35:15.907Z,0.85
2022-10-16T11:37:49.313Z,0.90
2022-10-16T11:40:30.033Z,0.90
2022-10-16T11:45:56.452Z,1.00
2022-10-16T11:48:55.460Z,0.88
2022-10-16T11:51:54.901Z,1.15
2022-10-16T11:54:40.803Z,0.82
2022-10-16T11:57:39.387Z,1.30
2022-10-16T12:00:11.637Z,1.27
2022-10-16T12:03:13.371Z,0.90
2022-10-16T12:06:02.547Z,0.93
2022-10-16T12:08:30.324Z,1.05
2022-10-16T12:11:11.195Z,0.90
2022-10-16T12:13:41.563Z,1.10
2022-10-16T12:16:23.841Z,1.05
2022-10-16T12:19:04.628Z,0.90
2022-10-16T12:21:32.750Z,1.27
2022-10-16T12:24:07.638Z,1.13
2022-10-16T12:26:40.174Z,1.05
2022-10-16T12:29:24.310Z,0.98
2022-10-16T12:31:57.480Z,1.00
2022-10-16T12:34:40.452Z,1.00
2022-10-16T12:37:36.060Z,1.00
2022-10-16T12:40:27.837Z,1.10
2022-10-16T12:42:54.896Z,1.20
2022-10-16T12:45:34.513Z,1.00
2022-10-16T12:48:21.362Z,0.90
2022-10-16T12:50:49.014Z,0.90
2022-10-16T12:53:23.769Z,0.75
2022-10-16T12:56:04.487Z,1.13
2022-10-16T12:58:59.304Z,0.80
2022-10-16T13:01:52.183Z,1.00
2022-10-16T13:05:12.183Z,1.00
2022-10-16T13:08:05.410Z,0.80
2022-10-16T13:11:04.032Z,1.00
2022-10-16T13:14:03.066Z,0.90
2022-10-16T13:16:45.820Z,1.00
2022-10-16T13:19:43.989Z,0.80
2022-10-16T13:22:36.766Z,1.10
2022-10-16T13:25:57.943Z,0.95
2022-10-16T13:28:32.950Z,0.90
2022-10-16T13:31:02.624Z,1.10
2022-10-16T13:33:46.804Z,0.90
2022-10-16T13:36:26.634Z,0.90
2022-10-16T13:39:26.688Z,0.75
2022-10-16T13:42:16.543Z,0.90
2022-10-16T13:44:53.162Z,1.10
2022-10-16T13:47:28.962Z,0.75
2022-10-16T13:50:06.882Z,0.70
2022-10-16T13:52:34.089Z,0.68
2022-10-16T13:55:02.396Z,0.90
2022-10-16T13:57:29.780Z,0.70
2022-10-16T13:59:56.912Z,0.73
2022-10-16T14:02:39.024Z,0.70
2022-10-16T14:05:11.685Z,0.65
2022-10-16T14:07:39.625Z,0.73
2022-10-16T14:10:28.073Z,0.80
2022-10-16T14:13:05.719Z,0.65
2022-10-16T14:15:36.398Z,0.70
2022-10-16T14:18:04.636Z,0.73
2022-10-16T14:20:35.142Z,0.90
2022-10-16T14:23:31.858Z,0.70
2022-10-16T14:26:10.937Z,0.65
2022-10-16T14:28:41.465Z,0.80
2022-10-16T14:31:20.567Z,0.73
2022-10-16T14:33:48.079Z,0.80
2022-10-16T14:36:21.613Z,0.60
2022-10-16T14:39:18.574Z,0.85
2022-10-16T14:41:50.701Z,0.63
2022-10-16T14:44:21.102Z,0.82
2022-10-16T14:46:48.684Z,0.60
2022-10-16T14:49:22.905Z,0.70
2022-10-16T14:51:49.929Z,0.60
2022-10-16T14:54:19.672Z,0.75
2022-10-16T14:56:52.772Z,0.70
2022-10-16T14:59:31.792Z,0.60
2022-10-16T15:01:59.251Z,0.68
2022-10-16T15:04:26.232Z,0.70
2022-10-16T15:06:53.088Z,0.63
2022-10-16T15:09:19.950Z,0.80
2022-10-16T15:11:48.477Z,0.80
2022-10-16T15:16:42.913Z,0.68
2022-10-16T15:19:09.843Z,0.70
2022-10-16T15:21:36.778Z,0.88
2022-10-16T15:24:03.826Z,0.80
2022-10-16T15:26:31.560Z,0.73
2022-10-16T15:28:59.029Z,0.90
2022-10-16T15:31:26.187Z,0.70
2022-10-16T15:33:59.021Z,0.80
2022-10-16T15:36:29.096Z,0.88
2022-10-16T15:38:56.503Z,0.60
2022-10-16T15:41:24.109Z,0.57
2022-10-16T15:43:51.925Z,0.65
2022-10-16T15:46:26.038Z,0.60
2022-10-16T15:48:59.277Z,0.70
2022-10-16T15:51:33.529Z,0.70
2022-10-16T15:54:02.800Z,0.60
2022-10-16T15:56:31.551Z,0.80
2022-10-16T15:58:59.317Z,0.93
2022-10-16T16:01:26.915Z,0.88
2022-10-16T16:03:57.431Z,0.88
2022-10-16T16:06:27.799Z,0.98
2022-10-16T16:08:54.876Z,0.90
2022-10-16T16:11:24.607Z,0.98
2022-10-16T16:13:51.565Z,0.80
2022-10-16T16:16:20.949Z,1.05
2022-10-16T16:18:50.298Z,1.10
2022-10-16T16:21:17.343Z,0.70
2022-10-16T16:23:44.328Z,1.10
2022-10-16T16:26:22.775Z,1.00
2022-10-16T16:28:49.795Z,0.85
2022-10-16T16:31:18.520Z,0.80
2022-10-16T16:33:45.963Z,1.00
2022-10-16T16:36:15.735Z,0.80
2022-10-16T16:38:43.290Z,1.20
2022-10-16T16:41:24.071Z,0.95
2022-10-16T16:43:52.328Z,1.23
2022-10-16T16:46:20.906Z,0.85
2022-10-16T16:48:50.952Z,1.20
2022-10-16T16:51:20.753Z,1.20
2022-10-16T16:53:52.999Z,1.00
2022-10-16T16:56:22.966Z,1.00
2022-10-16T16:58:53.294Z,0.93
2022-10-16T17:01:21.765Z,1.00
2022-10-16T17:03:52.807Z,1.05
2022-10-16T17:06:26.179Z,0.95
2022-10-16T17:08:53.646Z,1.08
2022-10-16T17:11:25.429Z,1.00
2022-10-16T17:13:56.808Z,0.80
2022-10-16T17:16:36.610Z,1.02
2022-10-16T17:19:08.330Z,0.93
2022-10-16T17:21:36.518Z,0.95
2022-10-16T17:24:04.318Z,1.05
2022-10-16T17:26:32.281Z,1.10
2022-10-16T17:29:02.089Z,1.00
2022-10-16T17:31:34.225Z,1.00
2022-10-16T17:34:04.398Z,1.23
2022-10-16T17:36:35.520Z,1.45
2022-10-16T17:39:06.694Z,1.10
2022-10-16T17:41:35.553Z,1.70
2022-10-16T17:44:05.828Z,1.20
2022-10-16T17:46:36.954Z,1.20
2022-10-16T17:49:07.223Z,1.15
2022-10-16T17:51:34.348Z,1.10
2022-10-16T17:54:02.515Z,1.30
2022-10-16T17:56:31.212Z,0.95
2022-10-16T17:59:01.813Z,1.45
2022-10-16T18:01:35.720Z,1.00
2022-10-16T18:04:10.539Z,1.20
2022-10-16T18:06:38.531Z,1.10
2022-10-16T18:11:59.594Z,1.00
2022-10-16T18:14:29.563Z,1.10
2022-10-16T18:16:57.981Z,1.00
2022-10-16T18:19:26.370Z,1.40
2022-10-16T18:21:55.703Z,1.20
2022-10-16T18:24:25.177Z,1.08
2022-10-16T18:26:56.817Z,0.95
2022-10-16T18:29:26.904Z,1.33
2022-10-16T18:31:54.640Z,1.00
2022-10-16T18:34:21.937Z,1.00
2022-10-16T18:36:51.418Z,0.90
2022-10-16T18:39:23.747Z,0.95
2022-10-16T18:41:51.550Z,1.33
2022-10-16T18:46:52.513Z,1.50
2022-10-16T18:49:19.422Z,1.23
2022-10-16T18:51:48.575Z,1.58
2022-10-16T18:54:15.488Z,1.00
2022-10-16T18:56:42.465Z,1.00
2022-10-16T18:59:10.752Z,1.17
2022-10-16T19:01:38.927Z,1.27
2022-10-16T19:04:10.969Z,1.20
2022-10-16T19:06:44.946Z,1.25
2022-10-16T19:09:14.120Z,1.23
2022-10-16T19:11:42.325Z,1.10
2022-10-16T19:14:14.401Z,1.17
2022-10-16T19:16:43.086Z,0.80
2022-10-16T19:19:18.492Z,1.10
2022-10-16T19:21:47.838Z,1.00
2022-10-16T19:24:16.626Z,1.20
2022-10-16T19:26:43.742Z,1.10
2022-10-16T19:29:11.759Z,1.30
2022-10-16T19:31:39.504Z,1.05
2022-10-16T19:34:07.642Z,1.10
2022-10-16T19:36:37.269Z,1.02
2022-10-16T19:39:08.672Z,1.00
2022-10-16T19:41:38.084Z,0.98
2022-10-16T19:44:09.034Z,1.08
2022-10-16T19:46:36.884Z,1.20
2022-10-16T19:49:11.591Z,1.10
2022-10-16T19:51:39.952Z,1.30
2022-10-16T19:54:14.239Z,1.23
2022-10-16T19:56:42.579Z,1.20
2022-10-16T19:59:13.157Z,1.13
2022-10-16T20:01:40.700Z,1.20
2022-10-16T20:04:07.837Z,1.20
2022-10-16T20:06:35.159Z,1.00
2022-10-16T20:09:02.392Z,1.30
2022-10-16T20:11:33.677Z,1.10
2022-10-16T20:14:02.001Z,1.23
2022-10-16T20:16:31.010Z,1.38
2022-10-16T20:18:59.391Z,1.20
2022-10-16T20:21:33.383Z,1.23
2022-10-16T20:24:04.337Z,1.20
2022-10-16T20:26:31.301Z,1.23
2022-10-16T20:28:58.325Z,1.23
2022-10-16T20:31:28.692Z,1.10
2022-10-16T20:33:57.664Z,1.00
2022-10-16T20:36:26.827Z,1.20
2022-10-16T20:38:54.218Z,1.00
2022-10-16T20:41:21.461Z,1.30
2022-10-16T20:43:50.646Z,1.25
2022-10-16T20:46:22.724Z,1.20
2022-10-16T20:48:50.499Z,1.20
2022-10-16T20:51:29.710Z,1.10
2022-10-16T20:54:03.309Z,1.20
2022-10-16T20:56:35.760Z,1.15
2022-10-16T20:59:03.923Z,1.10
2022-10-16T21:01:31.872Z,1.15
2022-10-16T21:04:02.035Z,1.00
2022-10-16T21:06:32.409Z,1.20
2022-10-16T21:09:02.921Z,0.98
2022-10-16T21:14:03.642Z,0.90
2022-10-16T21:16:30.659Z,1.08
2022-10-16T21:18:58.560Z,0.98
2022-10-16T21:21:30.089Z,0.80
2022-10-16T21:23:59.270Z,1.10
2022-10-16T21:26:28.669Z,1.20
2022-10-16T21:29:02.869Z,1.10
2022-10-16T21:31:30.771Z,1.00
2022-10-16T21:33:58.238Z,1.00
2022-10-16T21:36:38.120Z,1.10
2022-10-16T21:39:16.689Z,1.00
2022-10-16T21:41:47.073Z,0.98
2022-10-16T21:44:15.739Z,0.95
2022-10-16T21:46:44.848Z,1.10
2022-10-16T21:49:19.308Z,0.90
2022-10-16T21:51:50.259Z,0.98
2022-10-16T21:54:20.950Z,0.90
2022-10-16T21:56:48.159Z,0.90
2022-10-16T21:59:15.873Z,1.00
2022-10-16T22:01:44.009Z,1.10
2022-10-16T22:04:14.307Z,0.98
2022-10-16T22:06:42.006Z,0.93
2022-10-16T22:09:14.000Z,1.10
2022-10-16T22:11:43.491Z,1.10
2022-10-16T22:14:18.310Z,0.98
2022-10-16T22:16:46.364Z,1.00
2022-10-16T22:19:16.333Z,0.98
2022-10-16T22:21:46.339Z,1.25
2022-10-16T22:24:15.229Z,1.10
2022-10-16T22:26:42.151Z,0.90
2022-10-16T22:29:14.492Z,1.00
2022-10-16T22:31:41.987Z,1.00
2022-10-16T22:34:12.938Z,1.00
2022-10-16T22:36:39.971Z,0.90
2022-10-16T22:39:07.082Z,0.90
2022-10-16T22:41:33.932Z,1.00
2022-10-16T22:44:01.038Z,1.00
2022-10-16T22:46:30.565Z,0.80
2022-10-16T22:48:58.114Z,0.80
2022-10-16T22:51:27.214Z,1.02
2022-10-16T22:53:54.518Z,1.00
2022-10-16T22:56:22.549Z,0.82
2022-10-16T22:58:50.053Z,0.80
2022-10-16T23:01:28.992Z,0.90
2022-10-16T23:03:56.512Z,1.00
2022-10-16T23:06:24.093Z,0.90
2022-10-16T23:08:56.887Z,0.90
2022-10-16T23:11:24.617Z,0.90
2022-10-16T23:13:51.936Z,1.10
2022-10-16T23:16:22.424Z,0.88
2022-10-16T23:18:50.094Z,0.80
2022-10-16T23:21:24.405Z,1.10
2022-10-16T23:23:53.570Z,0.75
2022-10-16T23:26:25.609Z,0.80
2022-10-16T23:28:52.834Z,0.98
2022-10-16T23:31:20.077Z,0.80
2022-10-16T23:33:47.009Z,0.80
2022-10-16T23:36:18.355Z,0.88
2022-10-16T23:38:47.204Z,0.80
2022-10-16T23:41:16.092Z,0.90
2022-10-16T23:43:43.442Z,0.88
2022-10-16T23:46:12.590Z,0.90
2022-10-16T23:48:40.684Z,0.95
2022-10-16T23:51:09.693Z,0.98
2022-10-16T23:53:37.406Z,0.80
2022-10-16T23:56:04.908Z,0.80
2022-10-16T23:58:31.925Z,0.80
